sensor_id;sensor_type;location;lat;lon;timestamp;pressure;altitude;pressure_sealevel;temperature;humidity
59487;BME280;45298;54.918;73.504;2024-01-10T00:01:37;99199.34;;;-20.31;81.04
59487;BME280;45298;54.918;73.504;2024-01-10T00:04:06;99183.53;;;-20.27;80.98
59487;BME280;45298;54.918;73.504;2024-01-10T00:06:36;99183.25;;;-20.15;81.50
59487;BME280;45298;54.918;73.504;2024-01-10T00:09:05;99162.06;;;-20.19;80.95
59487;BME280;45298;54.918;73.504;2024-01-10T00:11:34;99159.16;;;-20.09;81.10
59487;BME280;45298;54.918;73.504;2024-01-10T00:14:04;99165.44;;;-20.00;81.00
59487;BME280;45298;54.918;73.504;2024-01-10T00:16:33;99133.47;;;-20.00;81.34
59487;BME280;45298;54.918;73.504;2024-01-10T00:19:03;99121.16;;;-19.94;81.07
59487;BME280;45298;54.918;73.504;2024-01-10T00:21:32;99130.25;;;-19.78;81.29
59487;BME280;45298;54.918;73.504;2024-01-10T00:24:01;99094.09;;;-19.77;81.07
59487;BME280;45298;54.918;73.504;2024-01-10T00:26:30;99096.06;;;-19.69;81.17
59487;BME280;45298;54.918;73.504;2024-01-10T00:28:59;99086.31;;;-19.62;81.19
59487;BME280;45298;54.918;73.504;2024-01-10T00:31:31;99083.31;;;-19.53;81.08
59487;BME280;45298;54.918;73.504;2024-01-10T00:34:00;99062.31;;;-19.52;81.18
59487;BME280;45298;54.918;73.504;2024-01-10T00:36:29;99055.84;;;-19.45;81.51
59487;BME280;45298;54.918;73.504;2024-01-10T00:38:58;99037.69;;;-19.36;81.15
59487;BME280;45298;54.918;73.504;2024-01-10T00:41:27;99043.19;;;-19.25;81.43
59487;BME280;45298;54.918;73.504;2024-01-10T00:43:57;99025.53;;;-19.24;81.36
59487;BME280;45298;54.918;73.504;2024-01-10T00:46:26;99015.69;;;-19.18;80.78
59487;BME280;45298;54.918;73.504;2024-01-10T00:48:54;99016.03;;;-19.08;81.10
59487;BME280;45298;54.918;73.504;2024-01-10T00:51:23;98991.34;;;-19.16;80.99
59487;BME280;45298;54.918;73.504;2024-01-10T00:53:52;98976.06;;;-19.19;80.72
59487;BME280;45298;54.918;73.504;2024-01-10T00:56:21;98946.97;;;-19.30;80.63
59487;BME280;45298;54.918;73.504;2024-01-10T00:58:50;98965.50;;;-19.08;81.19
59487;BME280;45298;54.918;73.504;2024-01-10T01:01:19;98951.38;;;-19.03;81.31
59487;BME280;45298;54.918;73.504;2024-01-10T01:03:48;98938.16;;;-18.96;80.67
59487;BME280;45298;54.918;73.504;2024-01-10T01:06:17;98899.72;;;-19.10;80.81
59487;BME280;45298;54.918;73.504;2024-01-10T01:08:46;98915.50;;;-18.93;80.90
59487;BME280;45298;54.918;73.504;2024-01-10T01:11:14;98894.44;;;-18.92;80.75
59487;BME280;45298;54.918;73.504;2024-01-10T01:13:44;98875.03;;;-18.94;80.84
59487;BME280;45298;54.918;73.504;2024-01-10T01:16:12;98842.84;;;-18.98;80.46
59487;BME280;45298;54.918;73.504;2024-01-10T01:18:41;98844.06;;;-18.87;80.67
59487;BME280;45298;54.918;73.504;2024-01-10T01:21:14;98830.56;;;-18.88;80.97
59487;BME280;45298;54.918;73.504;2024-01-10T01:23:43;98808.00;;;-18.83;80.54
59487;BME280;45298;54.918;73.504;2024-01-10T01:26:12;98777.47;;;-18.88;80.67
59487;BME280;45298;54.918;73.504;2024-01-10T01:28:42;98787.84;;;-18.80;80.99
59487;BME280;45298;54.918;73.504;2024-01-10T01:31:11;98768.59;;;-18.76;80.47
59487;BME280;45298;54.918;73.504;2024-01-10T01:33:40;98749.06;;;-18.80;80.40
59487;BME280;45298;54.918;73.504;2024-01-10T01:36:09;98743.47;;;-18.72;80.57
59487;BME280;45298;54.918;73.504;2024-01-10T01:38:38;98707.91;;;-18.76;80.52
59487;BME280;45298;54.918;73.504;2024-01-10T01:41:07;98694.66;;;-18.69;80.59
59487;BME280;45298;54.918;73.504;2024-01-10T01:43:36;98674.97;;;-18.78;80.71
59487;BME280;45298;54.918;73.504;2024-01-10T01:46:05;98651.50;;;-18.74;80.16
59487;BME280;45298;54.918;73.504;2024-01-10T01:48:34;98603.72;;;-18.92;79.97
59487;BME280;45298;54.918;73.504;2024-01-10T01:51:07;98629.66;;;-18.72;79.91
59487;BME280;45298;54.918;73.504;2024-01-10T01:53:37;98615.34;;;-18.71;80.53
59487;BME280;45298;54.918;73.504;2024-01-10T01:56:08;98584.84;;;-18.76;80.05
59487;BME280;45298;54.918;73.504;2024-01-10T01:58:37;98606.31;;;-18.64;80.13
59487;BME280;45298;54.918;73.504;2024-01-10T02:01:07;98569.91;;;-18.68;80.28
59487;BME280;45298;54.918;73.504;2024-01-10T02:03:36;98553.25;;;-18.61;80.22
59487;BME280;45298;54.918;73.504;2024-01-10T02:06:05;98551.69;;;-18.58;80.47
59487;BME280;45298;54.918;73.504;2024-01-10T02:08:35;98543.53;;;-18.49;80.36
59487;BME280;45298;54.918;73.504;2024-01-10T02:11:05;98524.84;;;-18.52;80.02
59487;BME280;45298;54.918;73.504;2024-01-10T02:13:34;98502.94;;;-18.52;79.84
59487;BME280;45298;54.918;73.504;2024-01-10T02:16:04;98490.22;;;-18.55;80.12
59487;BME280;45298;54.918;73.504;2024-01-10T02:18:34;98474.34;;;-18.49;80.36
59487;BME280;45298;54.918;73.504;2024-01-10T02:21:06;98461.06;;;-18.42;80.88
59487;BME280;45298;54.918;73.504;2024-01-10T02:23:36;98429.94;;;-18.40;80.72
59487;BME280;45298;54.918;73.504;2024-01-10T02:26:05;98426.88;;;-18.28;80.85
59487;BME280;45298;54.918;73.504;2024-01-10T02:28:35;98401.69;;;-18.23;80.94
59487;BME280;45298;54.918;73.504;2024-01-10T02:31:03;98405.16;;;-18.19;81.19
59487;BME280;45298;54.918;73.504;2024-01-10T02:33:33;98369.28;;;-18.36;80.76
59487;BME280;45298;54.918;73.504;2024-01-10T02:36:01;98373.00;;;-18.24;80.44
59487;BME280;45298;54.918;73.504;2024-01-10T02:38:30;98373.09;;;-18.20;80.52
59487;BME280;45298;54.918;73.504;2024-01-10T02:40:59;98350.31;;;-18.20;80.86
59487;BME280;45298;54.918;73.504;2024-01-10T02:43:30;98337.69;;;-18.19;81.08
59487;BME280;45298;54.918;73.504;2024-01-10T02:46:02;98323.19;;;-18.26;81.06
59487;BME280;45298;54.918;73.504;2024-01-10T02:48:30;98302.81;;;-18.31;81.07
59487;BME280;45298;54.918;73.504;2024-01-10T02:50:59;98309.97;;;-18.14;81.86
59487;BME280;45298;54.918;73.504;2024-01-10T02:53:28;98258.06;;;-18.33;81.55
59487;BME280;45298;54.918;73.504;2024-01-10T02:55:58;98273.00;;;-18.07;81.45
59487;BME280;45298;54.918;73.504;2024-01-10T02:58:27;98247.56;;;-18.12;81.96
59487;BME280;45298;54.918;73.504;2024-01-10T03:00:57;98211.28;;;-18.14;81.75
59487;BME280;45298;54.918;73.504;2024-01-10T03:03:27;98215.63;;;-18.07;81.69
59487;BME280;45298;54.918;73.504;2024-01-10T03:05:56;98184.41;;;-18.07;81.98
59487;BME280;45298;54.918;73.504;2024-01-10T03:08:24;98179.53;;;-18.00;81.69
59487;BME280;45298;54.918;73.504;2024-01-10T03:10:53;98157.56;;;-17.99;81.72
59487;BME280;45298;54.918;73.504;2024-01-10T03:13:22;98122.63;;;-18.16;82.39
59487;BME280;45298;54.918;73.504;2024-01-10T03:15:51;98097.38;;;-18.14;82.06
59487;BME280;45298;54.918;73.504;2024-01-10T03:18:20;98146.00;;;-17.86;82.26
59487;BME280;45298;54.918;73.504;2024-01-10T03:20:49;98113.00;;;-17.89;82.29
59487;BME280;45298;54.918;73.504;2024-01-10T03:23:18;98109.78;;;-17.82;82.96
59487;BME280;45298;54.918;73.504;2024-01-10T03:25:47;98049.47;;;-18.03;82.77
59487;BME280;45298;54.918;73.504;2024-01-10T03:28:17;98060.00;;;-17.82;82.44
59487;BME280;45298;54.918;73.504;2024-01-10T03:30:46;98049.88;;;-17.82;83.21
59487;BME280;45298;54.918;73.504;2024-01-10T03:33:15;98008.44;;;-17.85;83.07
59487;BME280;45298;54.918;73.504;2024-01-10T03:35:45;97982.09;;;-17.98;83.01
59487;BME280;45298;54.918;73.504;2024-01-10T03:38:14;98005.31;;;-17.72;83.00
59487;BME280;45298;54.918;73.504;2024-01-10T03:40:44;97986.69;;;-17.74;83.02
59487;BME280;45298;54.918;73.504;2024-01-10T03:43:13;97963.94;;;-17.72;83.45
59487;BME280;45298;54.918;73.504;2024-01-10T03:45:43;97946.22;;;-17.71;83.25
59487;BME280;45298;54.918;73.504;2024-01-10T03:48:12;97944.75;;;-17.59;82.95
59487;BME280;45298;54.918;73.504;2024-01-10T03:50:41;97927.84;;;-17.60;83.52
59487;BME280;45298;54.918;73.504;2024-01-10T03:53:10;97904.22;;;-17.58;82.94
59487;BME280;45298;54.918;73.504;2024-01-10T03:55:39;97885.72;;;-17.52;83.03
59487;BME280;45298;54.918;73.504;2024-01-10T03:58:08;97887.63;;;-17.39;83.63
59487;BME280;45298;54.918;73.504;2024-01-10T04:00:37;97876.63;;;-17.39;84.21
59487;BME280;45298;54.918;73.504;2024-01-10T04:03:06;97863.22;;;-17.32;83.57
59487;BME280;45298;54.918;73.504;2024-01-10T04:05:35;97837.84;;;-17.35;83.80
59487;BME280;45298;54.918;73.504;2024-01-10T04:08:05;97837.97;;;-17.23;83.66
59487;BME280;45298;54.918;73.504;2024-01-10T04:10:36;97834.75;;;-17.12;84.55
59487;BME280;45298;54.918;73.504;2024-01-10T04:13:08;97817.06;;;-17.09;84.60
59487;BME280;45298;54.918;73.504;2024-01-10T04:15:39;97790.13;;;-16.99;84.02
59487;BME280;45298;54.918;73.504;2024-01-10T04:18:08;97771.53;;;-16.97;83.80
59487;BME280;45298;54.918;73.504;2024-01-10T04:20:41;97719.09;;;-17.03;83.43
59487;BME280;45298;54.918;73.504;2024-01-10T04:23:11;97728.44;;;-16.95;83.52
59487;BME280;45298;54.918;73.504;2024-01-10T04:25:40;97672.59;;;-17.06;83.23
59487;BME280;45298;54.918;73.504;2024-01-10T04:28:09;97685.44;;;-16.81;84.48
59487;BME280;45298;54.918;73.504;2024-01-10T04:30:37;97672.75;;;-16.81;84.01
59487;BME280;45298;54.918;73.504;2024-01-10T04:33:07;97670.28;;;-16.74;83.97
59487;BME280;45298;54.918;73.504;2024-01-10T04:35:36;97673.75;;;-16.65;83.09
59487;BME280;45298;54.918;73.504;2024-01-10T04:38:05;97630.59;;;-16.70;84.20
59487;BME280;45298;54.918;73.504;2024-01-10T04:40:34;97652.69;;;-16.57;84.15
59487;BME280;45298;54.918;73.504;2024-01-10T04:43:03;97623.06;;;-16.56;84.10
59487;BME280;45298;54.918;73.504;2024-01-10T04:45:32;97624.78;;;-16.52;83.33
59487;BME280;45298;54.918;73.504;2024-01-10T04:48:01;97618.94;;;-16.42;84.48
59487;BME280;45298;54.918;73.504;2024-01-10T04:50:30;97619.81;;;-16.39;83.49
59487;BME280;45298;54.918;73.504;2024-01-10T04:52:59;97604.63;;;-16.27;84.00
59487;BME280;45298;54.918;73.504;2024-01-10T04:55:28;97580.97;;;-16.23;84.32
59487;BME280;45298;54.918;73.504;2024-01-10T04:57:57;97582.69;;;-16.22;83.91
59487;BME280;45298;54.918;73.504;2024-01-10T05:00:27;97579.31;;;-16.15;83.84
59487;BME280;45298;54.918;73.504;2024-01-10T05:02:56;97571.72;;;-16.13;83.72
59487;BME280;45298;54.918;73.504;2024-01-10T05:05:24;97552.25;;;-16.13;84.17
59487;BME280;45298;54.918;73.504;2024-01-10T05:07:54;97543.00;;;-15.98;84.29
59487;BME280;45298;54.918;73.504;2024-01-10T05:10:23;97511.66;;;-15.97;84.05
59487;BME280;45298;54.918;73.504;2024-01-10T05:12:52;97500.72;;;-15.88;83.48
59487;BME280;45298;54.918;73.504;2024-01-10T05:15:20;97462.56;;;-16.02;84.25
59487;BME280;45298;54.918;73.504;2024-01-10T05:17:49;97460.03;;;-15.84;84.23
59487;BME280;45298;54.918;73.504;2024-01-10T05:20:19;97469.34;;;-15.70;83.98
59487;BME280;45298;54.918;73.504;2024-01-10T05:22:49;97459.19;;;-15.67;83.84
59487;BME280;45298;54.918;73.504;2024-01-10T05:25:18;97455.81;;;-15.60;83.67
59487;BME280;45298;54.918;73.504;2024-01-10T05:27:47;97427.84;;;-15.61;84.18
59487;BME280;45298;54.918;73.504;2024-01-10T05:30:16;97427.84;;;-15.51;84.43
59487;BME280;45298;54.918;73.504;2024-01-10T05:32:45;97390.59;;;-15.53;84.46
59487;BME280;45298;54.918;73.504;2024-01-10T05:35:14;97393.13;;;-15.42;83.88
59487;BME280;45298;54.918;73.504;2024-01-10T05:37:44;97389.72;;;-15.37;84.04
59487;BME280;45298;54.918;73.504;2024-01-10T05:40:13;97375.31;;;-15.35;83.64
59487;BME280;45298;54.918;73.504;2024-01-10T05:42:41;97342.25;;;-15.24;84.47
59487;BME280;45298;54.918;73.504;2024-01-10T05:45:10;97316.00;;;-15.29;84.08
59487;BME280;45298;54.918;73.504;2024-01-10T05:47:39;97289.72;;;-15.37;84.64
59487;BME280;45298;54.918;73.504;2024-01-10T05:50:09;97295.59;;;-15.16;84.54
59487;BME280;45298;54.918;73.504;2024-01-10T05:52:40;97288.78;;;-15.08;84.30
59487;BME280;45298;54.918;73.504;2024-01-10T05:55:10;97267.56;;;-15.01;84.55
59487;BME280;45298;54.918;73.504;2024-01-10T05:57:39;97266.69;;;-14.92;84.74
59487;BME280;45298;54.918;73.504;2024-01-10T06:00:09;97254.75;;;-14.82;84.83
59487;BME280;45298;54.918;73.504;2024-01-10T06:02:41;97234.34;;;-14.76;84.21
59487;BME280;45298;54.918;73.504;2024-01-10T06:05:11;97230.00;;;-14.66;84.83
59487;BME280;45298;54.918;73.504;2024-01-10T06:07:40;97222.31;;;-14.59;85.10
59487;BME280;45298;54.918;73.504;2024-01-10T06:10:10;97211.34;;;-14.65;84.33
59487;BME280;45298;54.918;73.504;2024-01-10T06:12:39;97182.47;;;-14.58;84.96
59487;BME280;45298;54.918;73.504;2024-01-10T06:15:08;97130.69;;;-14.55;85.01
59487;BME280;45298;54.918;73.504;2024-01-10T06:17:37;97153.50;;;-14.43;85.41
59487;BME280;45298;54.918;73.504;2024-01-10T06:20:07;97155.03;;;-14.26;85.98
59487;BME280;45298;54.918;73.504;2024-01-10T06:22:36;97134.44;;;-14.05;86.48
59487;BME280;45298;54.918;73.504;2024-01-10T06:25:05;97118.09;;;-13.85;86.88
59487;BME280;45298;54.918;73.504;2024-01-10T06:27:34;97109.47;;;-13.78;86.91
59487;BME280;45298;54.918;73.504;2024-01-10T06:30:03;97110.19;;;-13.63;86.86
59487;BME280;45298;54.918;73.504;2024-01-10T06:32:32;97093.06;;;-13.55;86.51
59487;BME280;45298;54.918;73.504;2024-01-10T06:35:01;97092.13;;;-13.49;86.30
59487;BME280;45298;54.918;73.504;2024-01-10T06:37:30;97076.81;;;-13.48;86.44
59487;BME280;45298;54.918;73.504;2024-01-10T06:40:02;97057.22;;;-13.44;86.21
59487;BME280;45298;54.918;73.504;2024-01-10T06:42:32;97062.22;;;-13.40;87.31
59487;BME280;45298;54.918;73.504;2024-01-10T06:45:01;97053.66;;;-13.34;87.65
59487;BME280;45298;54.918;73.504;2024-01-10T06:47:30;97049.28;;;-13.27;87.93
59487;BME280;45298;54.918;73.504;2024-01-10T06:49:59;97052.59;;;-13.21;86.73
59487;BME280;45298;54.918;73.504;2024-01-10T06:52:28;97015.97;;;-13.18;88.06
59487;BME280;45298;54.918;73.504;2024-01-10T06:54:57;96996.25;;;-13.08;87.38
59487;BME280;45298;54.918;73.504;2024-01-10T06:57:26;96982.53;;;-13.01;87.58
59487;BME280;45298;54.918;73.504;2024-01-10T06:59:55;96956.94;;;-12.95;88.00
59487;BME280;45298;54.918;73.504;2024-01-10T07:02:24;96957.47;;;-12.79;87.41
59487;BME280;45298;54.918;73.504;2024-01-10T07:04:53;96938.84;;;-12.84;87.32
59487;BME280;45298;54.918;73.504;2024-01-10T07:07:22;96912.53;;;-12.87;87.95
59487;BME280;45298;54.918;73.504;2024-01-10T07:09:54;96901.41;;;-12.83;88.28
59487;BME280;45298;54.918;73.504;2024-01-10T07:12:23;96902.22;;;-12.81;88.02
59487;BME280;45298;54.918;73.504;2024-01-10T07:14:52;96899.59;;;-12.77;87.07
59487;BME280;45298;54.918;73.504;2024-01-10T07:17:20;96879.09;;;-12.73;88.00
59487;BME280;45298;54.918;73.504;2024-01-10T07:19:51;96849.34;;;-12.74;86.49
59487;BME280;45298;54.918;73.504;2024-01-10T07:22:20;96841.75;;;-12.78;86.83
59487;BME280;45298;54.918;73.504;2024-01-10T07:24:52;96837.34;;;-12.71;87.17
59487;BME280;45298;54.918;73.504;2024-01-10T07:27:21;96848.34;;;-12.67;87.93
59487;BME280;45298;54.918;73.504;2024-01-10T07:29:50;96791.03;;;-12.93;87.90
59487;BME280;45298;54.918;73.504;2024-01-10T07:32:19;96803.22;;;-12.65;88.40
59487;BME280;45298;54.918;73.504;2024-01-10T07:34:49;96797.97;;;-12.59;87.32
59487;BME280;45298;54.918;73.504;2024-01-10T07:37:18;96802.84;;;-12.48;87.61
59487;BME280;45298;54.918;73.504;2024-01-10T07:39:49;96762.16;;;-12.56;87.78
59487;BME280;45298;54.918;73.504;2024-01-10T07:42:18;96734.94;;;-12.57;87.79
59487;BME280;45298;54.918;73.504;2024-01-10T07:44:47;96736.25;;;-12.40;88.00
59487;BME280;45298;54.918;73.504;2024-01-10T07:47:18;96716.63;;;-12.38;87.56
59487;BME280;45298;54.918;73.504;2024-01-10T07:49:48;96704.66;;;-12.36;88.33
59487;BME280;45298;54.918;73.504;2024-01-10T07:52:17;96687.66;;;-12.37;87.79
59487;BME280;45298;54.918;73.504;2024-01-10T07:54:48;96675.56;;;-12.31;88.09
59487;BME280;45298;54.918;73.504;2024-01-10T07:57:17;96667.72;;;-12.23;88.79
59487;BME280;45298;54.918;73.504;2024-01-10T07:59:47;96679.53;;;-12.17;87.83
59487;BME280;45298;54.918;73.504;2024-01-10T08:02:16;96665.66;;;-12.08;87.81
59487;BME280;45298;54.918;73.504;2024-01-10T08:04:45;96661.16;;;-11.98;88.02
59487;BME280;45298;54.918;73.504;2024-01-10T08:07:15;96624.53;;;-11.99;87.61
59487;BME280;45298;54.918;73.504;2024-01-10T08:09:45;96605.56;;;-11.92;88.15
59487;BME280;45298;54.918;73.504;2024-01-10T08:12:14;96596.09;;;-11.88;88.13
59487;BME280;45298;54.918;73.504;2024-01-10T08:14:43;96563.59;;;-11.85;89.01
59487;BME280;45298;54.918;73.504;2024-01-10T08:17:14;96529.69;;;-11.90;88.61
59487;BME280;45298;54.918;73.504;2024-01-10T08:19:43;96537.69;;;-11.72;89.09
59487;BME280;45298;54.918;73.504;2024-01-10T08:22:12;96521.25;;;-11.63;88.28
59487;BME280;45298;54.918;73.504;2024-01-10T08:24:45;96494.66;;;-11.58;89.25
59487;BME280;45298;54.918;73.504;2024-01-10T08:27:16;96506.94;;;-11.42;88.83
59487;BME280;45298;54.918;73.504;2024-01-10T08:29:45;96517.63;;;-11.29;88.48
59487;BME280;45298;54.918;73.504;2024-01-10T08:32:16;96479.25;;;-11.29;88.59
59487;BME280;45298;54.918;73.504;2024-01-10T08:34:46;96498.59;;;-11.20;88.57
59487;BME280;45298;54.918;73.504;2024-01-10T08:37:15;96481.19;;;-11.09;88.01
59487;BME280;45298;54.918;73.504;2024-01-10T08:39:47;96453.97;;;-11.12;88.93
59487;BME280;45298;54.918;73.504;2024-01-10T08:42:17;96445.22;;;-11.06;88.69
59487;BME280;45298;54.918;73.504;2024-01-10T08:44:47;96434.00;;;-11.02;88.44
59487;BME280;45298;54.918;73.504;2024-01-10T08:47:17;96429.31;;;-10.89;89.27
59487;BME280;45298;54.918;73.504;2024-01-10T08:49:46;96413.78;;;-10.84;89.90
59487;BME280;45298;54.918;73.504;2024-01-10T08:52:15;96394.97;;;-10.83;89.82
59487;BME280;45298;54.918;73.504;2024-01-10T08:54:44;96373.31;;;-10.74;89.69
59487;BME280;45298;54.918;73.504;2024-01-10T08:57:13;96379.69;;;-10.61;90.68
59487;BME280;45298;54.918;73.504;2024-01-10T08:59:45;96370.94;;;-10.55;89.66
59487;BME280;45298;54.918;73.504;2024-01-10T09:02:15;96356.97;;;-10.46;89.79
59487;BME280;45298;54.918;73.504;2024-01-10T09:04:44;96347.16;;;-10.37;90.40
59487;BME280;45298;54.918;73.504;2024-01-10T09:07:13;96336.56;;;-10.27;90.83
59487;BME280;45298;54.918;73.504;2024-01-10T09:09:47;96316.00;;;-10.26;90.66
59487;BME280;45298;54.918;73.504;2024-01-10T09:12:16;96329.50;;;-10.00;90.42
59487;BME280;45298;54.918;73.504;2024-01-10T09:14:45;96321.53;;;-9.92;90.22
59487;BME280;45298;54.918;73.504;2024-01-10T09:17:14;96333.94;;;-9.81;91.17
59487;BME280;45298;54.918;73.504;2024-01-10T09:19:44;96298.97;;;-9.84;91.06
59487;BME280;45298;54.918;73.504;2024-01-10T09:22:13;96292.69;;;-9.77;90.98
59487;BME280;45298;54.918;73.504;2024-01-10T09:24:41;96292.25;;;-9.66;90.15
59487;BME280;45298;54.918;73.504;2024-01-10T09:27:11;96282.63;;;-9.61;90.77
59487;BME280;45298;54.918;73.504;2024-01-10T09:29:40;96263.63;;;-9.57;90.57
59487;BME280;45298;54.918;73.504;2024-01-10T09:32:08;96270.97;;;-9.47;91.48
59487;BME280;45298;54.918;73.504;2024-01-10T09:34:40;96249.34;;;-9.42;91.24
59487;BME280;45298;54.918;73.504;2024-01-10T09:37:08;96212.97;;;-9.51;91.43
59487;BME280;45298;54.918;73.504;2024-01-10T09:39:37;96216.63;;;-9.36;91.02
59487;BME280;45298;54.918;73.504;2024-01-10T09:42:06;96199.22;;;-9.30;91.22
59487;BME280;45298;54.918;73.504;2024-01-10T09:44:36;96218.69;;;-9.06;91.47
59487;BME280;45298;54.918;73.504;2024-01-10T09:47:07;96220.09;;;-8.99;91.18
59487;BME280;45298;54.918;73.504;2024-01-10T09:49:37;96181.41;;;-9.14;91.48
59487;BME280;45298;54.918;73.504;2024-01-10T09:52:10;96195.75;;;-8.90;91.84
59487;BME280;45298;54.918;73.504;2024-01-10T09:54:44;96170.09;;;-8.92;91.62
59487;BME280;45298;54.918;73.504;2024-01-10T09:57:15;96171.78;;;-8.91;91.85
59487;BME280;45298;54.918;73.504;2024-01-10T09:59:45;96176.78;;;-8.88;92.19
59487;BME280;45298;54.918;73.504;2024-01-10T10:02:15;96170.38;;;-8.79;91.96
59487;BME280;45298;54.918;73.504;2024-01-10T10:05:03;96169.19;;;-8.72;91.90
59487;BME280;45298;54.918;73.504;2024-01-10T10:07:53;96165.50;;;-8.66;92.42
59487;BME280;45298;54.918;73.504;2024-01-10T10:10:22;96151.06;;;-8.69;91.95
59487;BME280;45298;54.918;73.504;2024-01-10T10:12:52;96114.78;;;-8.80;92.45
59487;BME280;45298;54.918;73.504;2024-01-10T10:15:23;96144.28;;;-8.52;93.12
59487;BME280;45298;54.918;73.504;2024-01-10T10:17:52;96133.44;;;-8.41;92.47
59487;BME280;45298;54.918;73.504;2024-01-10T10:20:23;96121.03;;;-8.33;92.82
59487;BME280;45298;54.918;73.504;2024-01-10T10:23:06;96116.88;;;-8.18;93.20
59487;BME280;45298;54.918;73.504;2024-01-10T10:25:37;96105.75;;;-8.01;94.44
59487;BME280;45298;54.918;73.504;2024-01-10T10:28:07;96103.69;;;-7.94;94.17
59487;BME280;45298;54.918;73.504;2024-01-10T10:30:47;96076.91;;;-7.74;95.33
59487;BME280;45298;54.918;73.504;2024-01-10T10:33:17;96083.69;;;-7.55;95.30
59487;BME280;45298;54.918;73.504;2024-01-10T10:35:46;96076.22;;;-7.44;95.03
59487;BME280;45298;54.918;73.504;2024-01-10T10:38:22;96066.25;;;-7.34;94.61
59487;BME280;45298;54.918;73.504;2024-01-10T10:40:51;96044.97;;;-7.22;95.69
59487;BME280;45298;54.918;73.504;2024-01-10T10:43:22;96024.13;;;-7.17;95.58
59487;BME280;45298;54.918;73.504;2024-01-10T10:45:51;96011.00;;;-7.13;94.22
59487;BME280;45298;54.918;73.504;2024-01-10T10:48:20;96009.66;;;-7.04;94.87
59487;BME280;45298;54.918;73.504;2024-01-10T10:51:04;96007.66;;;-6.99;94.45
59487;BME280;45298;54.918;73.504;2024-01-10T10:53:38;95981.88;;;-6.99;93.75
59487;BME280;45298;54.918;73.504;2024-01-10T10:56:12;95962.53;;;-7.06;94.71
59487;BME280;45298;54.918;73.504;2024-01-10T10:58:47;95974.38;;;-6.87;95.51
59487;BME280;45298;54.918;73.504;2024-01-10T11:01:18;95966.34;;;-6.83;94.78
59487;BME280;45298;54.918;73.504;2024-01-10T11:03:48;95953.19;;;-6.92;94.24
59487;BME280;45298;54.918;73.504;2024-01-10T11:06:17;95980.28;;;-6.71;95.16
59487;BME280;45298;54.918;73.504;2024-01-10T11:08:52;95964.53;;;-6.66;95.01
59487;BME280;45298;54.918;73.504;2024-01-10T11:11:26;95957.84;;;-6.54;95.53
59487;BME280;45298;54.918;73.504;2024-01-10T11:14:21;95957.88;;;-6.40;96.83
59487;BME280;45298;54.918;73.504;2024-01-10T11:25:11;95945.47;;;-5.64;96.81
59487;BME280;45298;54.918;73.504;2024-01-10T11:27:40;95948.91;;;-5.63;96.33
59487;BME280;45298;54.918;73.504;2024-01-10T11:30:11;95958.28;;;-5.62;95.37
59487;BME280;45298;54.918;73.504;2024-01-10T13:24:26;96134.78;;;-13.03;91.29
59487;BME280;45298;54.918;73.504;2024-01-10T13:26:56;96186.75;;;-13.06;91.22
59487;BME280;45298;54.918;73.504;2024-01-10T13:29:25;96196.69;;;-13.26;91.62
59487;BME280;45298;54.918;73.504;2024-01-10T13:31:55;96204.06;;;-13.45;91.19
59487;BME280;45298;54.918;73.504;2024-01-10T13:34:25;96200.28;;;-13.62;91.01
59487;BME280;45298;54.918;73.504;2024-01-10T13:36:54;96239.94;;;-13.85;90.47
59487;BME280;45298;54.918;73.504;2024-01-10T13:39:24;96246.53;;;-14.09;90.08
59487;BME280;45298;54.918;73.504;2024-01-10T13:41:53;96258.94;;;-14.31;90.23
59487;BME280;45298;54.918;73.504;2024-01-10T13:44:22;96272.09;;;-14.48;90.48
59487;BME280;45298;54.918;73.504;2024-01-10T13:46:51;96275.84;;;-14.65;90.33
59487;BME280;45298;54.918;73.504;2024-01-10T13:49:22;96299.94;;;-14.80;89.83
59487;BME280;45298;54.918;73.504;2024-01-10T13:51:51;96307.22;;;-15.02;89.39
59487;BME280;45298;54.918;73.504;2024-01-10T13:54:21;96316.03;;;-15.20;89.48
59487;BME280;45298;54.918;73.504;2024-01-10T13:56:50;96329.06;;;-15.37;88.69
59487;BME280;45298;54.918;73.504;2024-01-10T13:59:21;96340.47;;;-15.58;89.95
59487;BME280;45298;54.918;73.504;2024-01-10T14:01:51;96340.03;;;-15.81;88.22
59487;BME280;45298;54.918;73.504;2024-01-10T14:04:20;96355.53;;;-15.96;87.98
59487;BME280;45298;54.918;73.504;2024-01-10T14:06:51;96350.84;;;-16.19;87.54
59487;BME280;45298;54.918;73.504;2024-01-10T14:09:20;96334.38;;;-16.50;87.81
59487;BME280;45298;54.918;73.504;2024-01-10T14:11:49;96374.88;;;-16.44;87.67
59487;BME280;45298;54.918;73.504;2024-01-10T14:14:18;96390.25;;;-16.54;87.14
59487;BME280;45298;54.918;73.504;2024-01-10T14:16:53;96386.38;;;-16.82;87.61
59487;BME280;45298;54.918;73.504;2024-01-10T14:19:22;96422.75;;;-16.86;87.34
59487;BME280;45298;54.918;73.504;2024-01-10T14:21:52;96406.88;;;-16.99;87.00
59487;BME280;45298;54.918;73.504;2024-01-10T14:24:21;96440.78;;;-17.06;87.13
59487;BME280;45298;54.918;73.504;2024-01-10T14:26:50;96457.81;;;-17.22;88.26
59487;BME280;45298;54.918;73.504;2024-01-10T14:29:19;96466.41;;;-17.36;87.27
59487;BME280;45298;54.918;73.504;2024-01-10T14:31:50;96481.81;;;-17.60;87.34
59487;BME280;45298;54.918;73.504;2024-01-10T14:34:40;96485.28;;;-17.72;87.44
59487;BME280;45298;54.918;73.504;2024-01-10T14:37:11;96471.06;;;-17.94;87.67
59487;BME280;45298;54.918;73.504;2024-01-10T14:39:40;96498.00;;;-17.83;87.01
59487;BME280;45298;54.918;73.504;2024-01-10T14:42:09;96516.72;;;-18.03;86.57
59487;BME280;45298;54.918;73.504;2024-01-10T14:44:38;96498.16;;;-18.02;87.34
59487;BME280;45298;54.918;73.504;2024-01-10T14:47:07;96525.25;;;-18.16;87.61
59487;BME280;45298;54.918;73.504;2024-01-10T14:49:39;96548.00;;;-18.16;87.35
59487;BME280;45298;54.918;73.504;2024-01-10T14:52:08;96558.91;;;-18.11;86.55
59487;BME280;45298;54.918;73.504;2024-01-10T14:54:38;96564.03;;;-18.22;86.50